createdAt,value
2024-03-12T00:01:18.758Z,7.28
2024-03-12T00:03:46.812Z,9.30
2024-03-12T00:06:14.598Z,7.68
2024-03-12T00:08:42.497Z,10.35
2024-03-12T00:11:10.400Z,7.43
2024-03-12T00:13:38.112Z,8.27
2024-03-12T00:16:06.398Z,9.15
2024-03-12T00:18:35.799Z,8.52
2024-03-12T00:21:04.259Z,10.35
2024-03-12T00:23:32.441Z,8.23
2024-03-12T00:26:00.040Z,10.25
2024-03-12T00:28:28.267Z,8.45
2024-03-12T00:30:56.084Z,9.63
2024-03-12T00:33:24.110Z,7.88
2024-03-12T00:35:53.836Z,7.82
2024-03-12T00:38:21.985Z,8.50
2024-03-12T00:40:49.855Z,7.63
2024-03-12T00:43:18.008Z,7.93
2024-03-12T00:45:45.608Z,9.63
2024-03-12T00:48:15.021Z,8.82
2024-03-12T00:50:44.142Z,10.23
2024-03-12T00:53:13.390Z,8.55
2024-03-12T00:55:41.233Z,9.90
2024-03-12T00:58:09.425Z,11.50
2024-03-12T01:00:37.030Z,8.55
2024-03-12T01:03:05.206Z,10.77
2024-03-12T01:05:33.478Z,8.02
2024-03-12T01:08:01.568Z,9.18
2024-03-12T01:10:32.968Z,11.57
2024-03-12T01:13:03.752Z,10.32
2024-03-12T01:15:31.564Z,8.82
2024-03-12T01:17:59.505Z,9.60
2024-03-12T01:20:27.652Z,10.93
2024-03-12T01:22:55.986Z,8.95
2024-03-12T01:25:24.190Z,9.00
2024-03-12T01:27:53.772Z,8.35
2024-03-12T01:30:21.373Z,11.30
2024-03-12T01:32:49.651Z,8.05
2024-03-12T01:35:17.811Z,8.73
2024-03-12T01:37:45.495Z,9.73
2024-03-12T01:40:14.498Z,10.57
2024-03-12T01:42:42.564Z,9.90
2024-03-12T01:45:11.776Z,13.35
2024-03-12T01:47:39.388Z,9.40
2024-03-12T01:50:08.430Z,9.68
2024-03-12T01:52:36.139Z,10.45
2024-03-12T01:55:03.897Z,10.23
2024-03-12T01:57:32.615Z,9.80
2024-03-12T02:00:00.382Z,8.15
2024-03-12T02:02:30.202Z,9.35
2024-03-12T02:04:58.136Z,9.52
2024-03-12T02:07:26.171Z,11.60
2024-03-12T02:09:54.190Z,8.35
2024-03-12T02:12:22.245Z,8.23
2024-03-12T02:14:49.996Z,11.57
2024-03-12T02:17:17.844Z,10.05
2024-03-12T02:19:47.041Z,10.07
2024-03-12T02:22:14.934Z,10.05
2024-03-12T02:24:44.159Z,10.05
2024-03-12T02:27:12.097Z,13.68
2024-03-12T02:29:39.685Z,9.23
2024-03-12T02:32:07.547Z,8.00
2024-03-12T02:34:35.569Z,9.82
2024-03-12T02:37:03.332Z,9.45
2024-03-12T02:39:31.410Z,11.25
2024-03-12T02:42:01.110Z,10.07
2024-03-12T02:44:28.702Z,9.52
2024-03-12T02:46:56.575Z,8.82
2024-03-12T02:49:24.793Z,11.55
2024-03-12T02:51:52.563Z,8.55
2024-03-12T02:54:20.394Z,11.73
2024-03-12T02:56:48.869Z,9.50
2024-03-12T02:59:17.927Z,9.50
2024-03-12T03:01:45.861Z,10.13
2024-03-12T03:04:13.825Z,10.35
2024-03-12T03:06:41.428Z,9.25
2024-03-12T03:09:09.133Z,8.23
2024-03-12T03:11:37.389Z,10.55
2024-03-12T03:14:05.071Z,10.30
2024-03-12T03:16:34.400Z,10.20
2024-03-12T03:19:02.664Z,9.25
2024-03-12T03:21:30.337Z,12.35
2024-03-12T03:23:58.247Z,11.95
2024-03-12T03:26:26.514Z,14.15
2024-03-12T03:28:54.064Z,11.38
2024-03-12T03:31:21.891Z,10.68
2024-03-12T03:33:51.401Z,10.93
2024-03-12T03:36:19.061Z,11.60
2024-03-12T03:38:46.644Z,11.18
2024-03-12T03:41:14.777Z,13.80
2024-03-12T03:43:42.352Z,12.07
2024-03-12T03:46:10.372Z,10.25
2024-03-12T03:48:38.384Z,11.95
2024-03-12T03:51:07.490Z,11.98
2024-03-12T03:53:35.466Z,13.02
2024-03-12T03:56:03.776Z,12.60
2024-03-12T03:58:31.313Z,16.88
2024-03-12T04:00:59.267Z,13.93
2024-03-12T04:03:27.629Z,10.60
2024-03-12T04:05:55.228Z,11.80
2024-03-12T04:08:24.396Z,13.25
2024-03-12T04:10:52.676Z,15.27
2024-03-12T04:13:20.333Z,12.88
2024-03-12T04:15:48.290Z,15.38
2024-03-12T04:18:16.610Z,14.15
2024-03-12T04:20:44.210Z,15.07
2024-03-12T04:23:12.144Z,16.77
2024-03-12T04:25:41.582Z,15.63
2024-03-12T04:28:09.201Z,13.98
2024-03-12T04:30:36.761Z,15.05
2024-03-12T04:33:05.383Z,16.25
2024-03-12T04:35:32.995Z,20.10
2024-03-12T04:38:00.646Z,19.63
2024-03-12T04:40:29.164Z,23.27
2024-03-12T04:42:58.279Z,23.80
2024-03-12T04:45:25.986Z,18.88
2024-03-12T04:47:54.003Z,23.48
2024-03-12T04:50:21.604Z,21.90
2024-03-12T04:52:49.509Z,23.85
2024-03-12T04:55:18.262Z,23.58
2024-03-12T04:57:45.890Z,25.17
2024-03-12T05:00:16.862Z,26.05
2024-03-12T05:02:45.567Z,25.70
2024-03-12T05:05:13.299Z,22.15
2024-03-12T05:07:41.171Z,24.92
2024-03-12T05:10:10.213Z,28.60
2024-03-12T05:12:37.888Z,25.00
2024-03-12T05:15:06.841Z,24.33
2024-03-12T05:17:36.818Z,28.40
2024-03-12T05:20:06.109Z,24.88
2024-03-12T05:22:33.816Z,25.63
2024-03-12T05:25:01.820Z,28.23
2024-03-12T05:27:29.626Z,23.65
2024-03-12T05:29:57.554Z,25.58
2024-03-12T05:32:25.436Z,27.40
2024-03-12T05:34:54.604Z,25.08
2024-03-12T05:37:22.514Z,28.13
2024-03-12T05:39:50.257Z,26.92
2024-03-12T05:42:17.938Z,31.98
2024-03-12T05:44:45.910Z,24.10
2024-03-12T05:47:14.009Z,23.30
2024-03-12T05:49:41.680Z,24.40
2024-03-12T05:52:11.094Z,27.48
2024-03-12T05:54:39.004Z,26.38
2024-03-12T05:57:06.704Z,27.25
2024-03-12T05:59:34.318Z,28.77
2024-03-12T06:04:44.873Z,26.70
2024-03-12T06:07:16.825Z,24.45
2024-03-12T06:09:46.957Z,25.67
2024-03-12T06:12:14.865Z,25.38
2024-03-12T06:14:42.563Z,22.80
2024-03-12T06:17:10.213Z,26.48
2024-03-12T06:19:38.420Z,26.17
2024-03-12T06:22:06.297Z,21.77
2024-03-12T06:24:36.679Z,126.43
2024-03-12T06:27:05.348Z,35.30
2024-03-12T06:29:33.359Z,25.40
2024-03-12T06:32:01.327Z,30.52
2024-03-12T06:34:29.330Z,29.00
2024-03-12T06:36:57.240Z,70.53
2024-03-12T06:39:26.445Z,34.40
2024-03-12T06:41:55.852Z,31.63
2024-03-12T06:44:23.535Z,25.05
2024-03-12T06:46:51.473Z,22.08
2024-03-12T06:49:19.217Z,26.80
2024-03-12T06:51:47.020Z,26.33
2024-03-12T06:54:14.765Z,25.58
2024-03-12T06:56:42.909Z,25.35
2024-03-12T06:59:13.234Z,22.30
2024-03-12T07:01:42.126Z,24.67
2024-03-12T07:04:10.287Z,22.60
2024-03-12T07:06:38.190Z,23.83
2024-03-12T07:09:05.982Z,27.17
2024-03-12T07:11:34.264Z,28.55
2024-03-12T07:14:01.933Z,26.30
2024-03-12T07:16:31.297Z,24.33
2024-03-12T07:18:59.100Z,25.08
2024-03-12T07:21:26.745Z,25.98
2024-03-12T07:23:54.830Z,28.40
2024-03-12T07:26:23.012Z,23.50
2024-03-12T07:28:50.804Z,22.15
2024-03-12T07:31:19.140Z,23.13
2024-03-12T07:33:49.497Z,21.30
2024-03-12T07:36:17.203Z,25.58
2024-03-12T07:38:44.777Z,25.23
2024-03-12T07:41:12.782Z,20.17
2024-03-12T07:43:40.609Z,22.35
2024-03-12T07:46:09.342Z,22.75
2024-03-12T07:48:37.482Z,24.67
2024-03-12T07:51:06.834Z,20.48
2024-03-12T07:53:34.782Z,25.55
2024-03-12T07:56:02.837Z,23.80
2024-03-12T07:58:30.512Z,21.75
2024-03-12T08:00:58.300Z,23.15
2024-03-12T08:03:27.088Z,24.92
2024-03-12T08:05:55.243Z,22.27
2024-03-12T08:08:24.711Z,21.10
2024-03-12T08:10:53.570Z,21.90
2024-03-12T08:13:21.295Z,23.67
2024-03-12T08:15:48.964Z,18.13
2024-03-12T08:18:21.326Z,22.55
2024-03-12T08:20:50.493Z,21.83
2024-03-12T08:23:19.530Z,22.35
2024-03-12T08:25:56.299Z,21.45
2024-03-12T08:28:28.051Z,22.38
2024-03-12T08:30:59.972Z,25.08
2024-03-12T08:33:34.023Z,22.70
2024-03-12T08:36:02.046Z,20.75
2024-03-12T08:38:29.644Z,21.48
2024-03-12T08:40:59.307Z,20.10
2024-03-12T08:45:54.297Z,20.00
2024-03-12T08:48:22.066Z,23.27
2024-03-12T08:50:49.766Z,21.88
2024-03-12T08:53:20.428Z,17.80
2024-03-12T08:55:48.757Z,18.45
2024-03-12T08:58:17.892Z,20.63
2024-03-12T09:00:45.614Z,23.95
2024-03-12T09:03:13.640Z,17.73
2024-03-12T09:05:41.337Z,24.45
2024-03-12T09:08:08.928Z,19.75
2024-03-12T09:10:36.686Z,17.88
2024-03-12T09:13:05.207Z,18.63
2024-03-12T09:15:34.305Z,19.10
2024-03-12T09:18:02.438Z,23.30
2024-03-12T09:20:30.489Z,23.05
2024-03-12T09:22:58.124Z,19.50
2024-03-12T09:25:25.979Z,18.30
2024-03-12T09:27:54.051Z,18.42
2024-03-12T09:30:21.873Z,23.45
2024-03-12T09:32:51.322Z,17.40
2024-03-12T09:35:20.204Z,18.25
2024-03-12T09:37:47.856Z,20.58
2024-03-12T09:40:15.956Z,25.50
2024-03-12T09:42:48.349Z,24.60
2024-03-12T09:45:16.393Z,30.85
2024-03-12T09:47:44.365Z,31.02
2024-03-12T09:50:14.308Z,27.55
2024-03-12T09:55:10.847Z,29.45
2024-03-12T09:57:39.124Z,33.97
2024-03-12T10:00:07.898Z,32.60
2024-03-12T10:02:36.183Z,34.92
2024-03-12T10:05:04.482Z,35.58
2024-03-12T10:07:34.369Z,34.97
2024-03-12T10:10:02.684Z,28.73
2024-03-12T10:12:30.398Z,39.55
2024-03-12T10:14:58.229Z,26.08
2024-03-12T10:17:26.171Z,26.58
2024-03-12T10:20:07.498Z,33.60
2024-03-12T10:22:36.699Z,28.90
2024-03-12T10:25:09.170Z,28.00
2024-03-12T10:28:03.425Z,30.52
2024-03-12T10:30:35.923Z,27.08
2024-03-12T10:33:12.817Z,28.60
2024-03-12T10:35:41.037Z,30.15
2024-03-12T10:38:10.427Z,27.27
2024-03-12T10:40:38.150Z,28.83
2024-03-12T10:43:06.416Z,32.65
2024-03-12T10:45:34.796Z,30.20
2024-03-12T10:48:05.235Z,27.00
2024-03-12T10:50:33.066Z,31.50
2024-03-12T10:53:00.786Z,25.42
2024-03-12T10:55:30.508Z,27.60
2024-03-12T10:58:01.826Z,27.60
2024-03-12T11:00:31.114Z,29.98
2024-03-12T11:02:59.090Z,35.03
2024-03-12T11:05:27.924Z,30.13
2024-03-12T11:07:56.758Z,26.90
2024-03-12T11:10:25.970Z,27.38
2024-03-12T11:12:56.982Z,26.13
2024-03-12T11:15:25.089Z,26.95
2024-03-12T11:17:53.032Z,25.55
2024-03-12T11:20:24.737Z,24.83
2024-03-12T11:22:55.298Z,27.98
2024-03-12T11:25:28.773Z,27.70
2024-03-12T11:28:20.374Z,27.80
2024-03-12T11:30:50.258Z,27.95
2024-03-12T11:33:43.428Z,25.88
2024-03-12T11:36:12.401Z,26.10
2024-03-12T11:38:40.876Z,23.95
2024-03-12T11:41:09.091Z,24.87
2024-03-12T11:43:40.318Z,27.05
2024-03-12T11:46:09.406Z,23.20
2024-03-12T11:48:38.579Z,28.00
2024-03-12T11:51:07.465Z,26.67
2024-03-12T11:53:36.048Z,25.73
2024-03-12T11:56:11.723Z,25.48
2024-03-12T11:58:42.571Z,26.98
2024-03-12T12:01:11.319Z,22.73
2024-03-12T12:03:39.874Z,23.90
2024-03-12T12:06:08.991Z,20.83
2024-03-12T12:08:45.643Z,26.35
2024-03-12T12:11:18.937Z,28.05
2024-03-12T12:13:48.610Z,27.15
2024-03-12T12:16:17.791Z,25.00
2024-03-12T12:18:46.669Z,26.85
2024-03-12T12:21:15.513Z,27.40
2024-03-12T12:23:44.390Z,29.20
2024-03-12T12:26:15.592Z,26.00
2024-03-12T12:28:43.282Z,24.27
2024-03-12T12:31:14.322Z,24.02
2024-03-12T12:33:47.272Z,22.05
2024-03-12T12:36:16.597Z,23.58
2024-03-12T12:38:49.435Z,22.15
2024-03-12T12:41:20.656Z,26.17
2024-03-12T12:43:48.675Z,22.80
2024-03-12T12:46:18.265Z,22.73
2024-03-12T12:48:48.844Z,25.13
2024-03-12T12:51:16.640Z,20.75
2024-03-12T12:53:44.543Z,24.10
2024-03-12T12:56:12.845Z,26.52
2024-03-12T12:58:40.430Z,22.48
2024-03-12T13:01:09.173Z,21.35
2024-03-12T13:03:40.991Z,25.53
2024-03-12T13:06:15.593Z,22.20
2024-03-12T13:08:44.988Z,23.77
2024-03-12T13:11:13.434Z,21.90
2024-03-12T13:13:42.570Z,23.83
2024-03-12T13:16:12.363Z,24.77
2024-03-12T13:18:43.821Z,24.52
2024-03-12T13:21:13.008Z,22.42
2024-03-12T13:23:40.598Z,25.38
2024-03-12T13:26:08.221Z,23.35
2024-03-12T13:28:36.235Z,21.35
2024-03-12T13:31:04.048Z,20.23
2024-03-12T13:33:31.970Z,20.98
2024-03-12T13:36:01.847Z,23.63
2024-03-12T13:38:29.425Z,20.55
2024-03-12T13:40:57.231Z,20.20
2024-03-12T13:43:25.982Z,21.77
2024-03-12T13:45:54.275Z,20.38
2024-03-12T13:48:22.347Z,20.33
2024-03-12T13:50:50.181Z,18.88
2024-03-12T13:53:19.150Z,21.88
2024-03-12T13:55:47.090Z,21.30
2024-03-12T13:58:14.821Z,17.35
2024-03-12T14:00:42.694Z,16.23
2024-03-12T14:03:11.494Z,19.00
2024-03-12T14:05:39.568Z,18.17
2024-03-12T14:08:07.585Z,18.80
2024-03-12T14:10:36.648Z,18.67
2024-03-12T14:13:04.950Z,19.67
2024-03-12T14:15:32.559Z,17.95
2024-03-12T14:18:00.331Z,17.73
2024-03-12T14:20:29.065Z,19.08
2024-03-12T14:22:57.144Z,19.77
2024-03-12T14:25:25.455Z,20.35
2024-03-12T14:28:12.810Z,19.42
2024-03-12T14:30:40.552Z,20.65
2024-03-12T14:33:08.204Z,20.02
2024-03-12T14:35:36.625Z,22.80
2024-03-12T14:38:05.035Z,18.23
2024-03-12T14:40:32.649Z,20.35
2024-03-12T14:43:02.625Z,15.95
2024-03-12T14:45:30.324Z,17.88
2024-03-12T14:47:58.113Z,17.55
2024-03-12T14:50:26.614Z,20.17
2024-03-12T14:52:54.220Z,15.55
2024-03-12T14:55:21.846Z,16.52
2024-03-12T14:57:50.193Z,13.73
2024-03-12T15:00:19.846Z,14.52
2024-03-12T15:02:47.413Z,12.20
2024-03-12T15:05:15.208Z,15.38
2024-03-12T15:07:45.042Z,12.40
2024-03-12T15:10:12.864Z,41.17
2024-03-12T15:12:42.578Z,18.17
2024-03-12T15:15:11.483Z,14.50
2024-03-12T15:17:40.760Z,15.97
2024-03-12T15:20:09.339Z,14.13
2024-03-12T15:22:36.996Z,11.55
2024-03-12T15:25:04.975Z,11.55
2024-03-12T15:27:33.125Z,11.75
2024-03-12T15:30:00.677Z,14.18
2024-03-12T15:32:28.213Z,13.52
2024-03-12T15:37:46.119Z,12.93
2024-03-12T15:40:14.325Z,13.50
2024-03-12T15:42:44.363Z,13.10
2024-03-12T15:45:13.090Z,13.70
2024-03-12T15:47:41.670Z,11.32
2024-03-12T15:50:11.188Z,9.95
2024-03-12T15:55:07.644Z,14.82
2024-03-12T15:57:36.522Z,12.23
2024-03-12T16:00:06.836Z,11.27
2024-03-12T16:02:38.261Z,9.77
2024-03-12T16:05:07.207Z,11.48
2024-03-12T16:07:36.361Z,10.95
2024-03-12T16:10:04.628Z,12.95
2024-03-12T16:12:32.620Z,11.27
2024-03-12T16:15:00.351Z,11.05
2024-03-12T16:17:28.289Z,12.25
2024-03-12T16:20:15.394Z,13.65
2024-03-12T16:22:45.794Z,11.50
2024-03-12T16:25:13.793Z,11.35
2024-03-12T16:27:43.979Z,10.38
2024-03-12T16:30:15.145Z,11.10
2024-03-12T16:32:44.482Z,10.32
2024-03-12T16:35:12.220Z,10.38
2024-03-12T16:37:40.056Z,10.88
2024-03-12T16:40:11.059Z,10.25
2024-03-12T16:42:38.810Z,12.38
2024-03-12T16:45:07.678Z,8.80
2024-03-12T16:47:35.599Z,11.30
2024-03-12T16:50:03.576Z,9.07
2024-03-12T16:52:31.778Z,13.60
2024-03-12T16:55:00.235Z,9.45
2024-03-12T16:57:30.061Z,9.95
2024-03-12T16:59:58.413Z,10.52
2024-03-12T17:02:26.639Z,13.23
2024-03-12T17:04:54.839Z,11.45
2024-03-12T17:07:24.557Z,11.05
2024-03-12T17:09:52.987Z,9.02
2024-03-12T17:12:22.418Z,9.30
2024-03-12T17:17:24.226Z,10.82
2024-03-12T17:19:52.425Z,12.35
2024-03-12T17:22:20.732Z,10.93
2024-03-12T17:24:49.549Z,11.45
2024-03-12T17:27:17.484Z,13.03
2024-03-12T17:29:45.604Z,10.13
2024-03-12T17:32:16.239Z,10.73
2024-03-12T17:34:44.393Z,13.45
2024-03-12T17:37:14.820Z,11.75
2024-03-12T17:39:46.073Z,12.10
2024-03-12T17:42:14.694Z,11.50
2024-03-12T17:44:43.379Z,13.05
2024-03-12T17:47:13.155Z,12.93
2024-03-12T17:49:44.041Z,13.63
2024-03-12T17:52:12.640Z,13.82
2024-03-12T17:54:41.229Z,14.15
2024-03-12T17:57:11.414Z,13.82
2024-03-12T17:59:39.812Z,11.55
2024-03-12T18:02:09.589Z,14.65
2024-03-12T18:04:37.973Z,13.90
2024-03-12T18:07:16.279Z,13.38
2024-03-12T18:09:50.265Z,14.10
2024-03-12T18:12:18.598Z,13.15
2024-03-12T18:14:46.892Z,13.35
2024-03-12T18:17:14.431Z,13.32
2024-03-12T18:19:42.337Z,14.38
2024-03-12T18:22:12.906Z,12.30
2024-03-12T18:24:40.653Z,13.50
2024-03-12T18:27:08.495Z,12.40
2024-03-12T18:29:36.124Z,10.05
2024-03-12T18:32:04.280Z,11.80
2024-03-12T18:34:32.192Z,13.85
2024-03-12T18:37:00.113Z,13.52
2024-03-12T18:39:29.450Z,14.85
2024-03-12T18:41:57.979Z,13.70
2024-03-12T18:44:25.617Z,19.92
2024-03-12T18:46:53.178Z,15.13
2024-03-12T18:49:21.378Z,13.88
2024-03-12T18:51:49.697Z,13.70
2024-03-12T18:54:18.046Z,14.07
2024-03-12T18:56:47.936Z,11.45
2024-03-12T18:59:15.965Z,11.25
2024-03-12T19:01:46.959Z,10.85
2024-03-12T19:04:15.126Z,11.07
2024-03-12T19:06:44.275Z,13.80
2024-03-12T19:09:12.577Z,14.02
2024-03-12T19:11:40.946Z,14.00
2024-03-12T19:14:10.626Z,12.93
2024-03-12T19:16:38.767Z,12.25
2024-03-12T19:19:06.910Z,14.07
2024-03-12T19:21:35.061Z,13.45
2024-03-12T19:24:03.741Z,11.63
2024-03-12T19:26:33.033Z,12.60
2024-03-12T19:29:00.594Z,10.10
2024-03-12T19:31:30.516Z,12.23
2024-03-12T19:36:28.637Z,11.88
2024-03-12T19:38:57.042Z,12.63
2024-03-12T19:41:25.678Z,14.00
2024-03-12T19:43:53.870Z,12.65
2024-03-12T19:46:21.830Z,10.32
2024-03-12T19:48:51.818Z,15.20
2024-03-12T19:51:19.881Z,14.45
2024-03-12T19:53:48.618Z,11.82
2024-03-12T19:56:17.627Z,13.13
2024-03-12T19:58:45.127Z,13.27
2024-03-12T20:01:12.969Z,12.05
2024-03-12T20:03:41.335Z,10.80
2024-03-12T20:06:10.370Z,13.05
2024-03-12T20:08:38.194Z,12.85
2024-03-12T20:11:06.033Z,12.20
2024-03-12T20:13:33.827Z,11.95
2024-03-12T20:16:01.765Z,11.60
2024-03-12T20:18:29.406Z,10.57
2024-03-12T20:20:56.957Z,11.73
2024-03-12T20:23:26.580Z,9.82
2024-03-12T20:25:54.200Z,13.50
2024-03-12T20:28:21.882Z,10.80
2024-03-12T20:30:49.681Z,10.15
2024-03-12T20:33:17.420Z,11.90
2024-03-12T20:36:03.484Z,9.98
2024-03-12T20:38:33.168Z,13.50
2024-03-12T20:41:00.729Z,10.23
2024-03-12T20:43:28.681Z,10.98
2024-03-12T20:45:56.528Z,11.52
2024-03-12T20:48:24.198Z,11.32
2024-03-12T20:50:51.853Z,11.30
2024-03-12T20:53:19.803Z,10.10
2024-03-12T20:58:35.233Z,12.40
2024-03-12T21:01:02.980Z,11.88
2024-03-12T21:03:30.520Z,9.77
2024-03-12T21:05:58.421Z,10.23
2024-03-12T21:08:26.041Z,12.23
2024-03-12T21:10:55.067Z,10.93
2024-03-12T21:13:23.332Z,9.77
2024-03-12T21:15:50.947Z,11.65
2024-03-12T21:18:18.589Z,11.55
2024-03-12T21:20:47.200Z,10.32
2024-03-12T21:23:15.372Z,11.30
2024-03-12T21:25:43.482Z,9.68
2024-03-12T21:28:13.111Z,8.82
2024-03-12T21:30:41.328Z,10.75
2024-03-12T21:33:09.726Z,9.30
2024-03-12T21:35:37.713Z,11.15
2024-03-12T21:38:05.498Z,10.30
2024-03-12T21:40:33.401Z,8.43
2024-03-12T21:43:01.195Z,9.68
2024-03-12T21:45:30.323Z,9.45
2024-03-12T21:47:58.172Z,9.38
2024-03-12T21:50:26.249Z,9.73
2024-03-12T21:52:53.807Z,10.43
2024-03-12T21:55:22.695Z,8.02
2024-03-12T21:57:51.607Z,8.02
2024-03-12T22:00:20.738Z,10.70
2024-03-12T22:05:18.474Z,10.65
2024-03-12T22:07:46.172Z,9.65
2024-03-12T22:10:14.236Z,8.45
2024-03-12T22:12:42.812Z,9.93
2024-03-12T22:15:11.110Z,9.20
2024-03-12T22:17:38.975Z,9.57
2024-03-12T22:20:08.706Z,10.77
2024-03-12T22:22:36.574Z,9.43
2024-03-12T22:25:04.816Z,9.95
2024-03-12T22:27:32.597Z,10.80
2024-03-12T22:30:00.372Z,10.23
2024-03-12T22:32:28.318Z,10.70
2024-03-12T22:34:56.242Z,12.52
2024-03-12T22:37:25.670Z,11.45
2024-03-12T22:42:21.608Z,9.82
2024-03-12T22:44:49.802Z,9.80
2024-03-12T22:47:18.156Z,10.65
2024-03-12T22:50:05.175Z,12.32
2024-03-12T22:52:34.367Z,9.75
2024-03-12T22:55:02.477Z,12.18
2024-03-12T22:57:30.568Z,12.65
2024-03-12T22:59:58.660Z,12.10
2024-03-12T23:02:26.761Z,9.40
2024-03-12T23:04:54.955Z,10.57
2024-03-12T23:07:23.056Z,11.02
2024-03-12T23:09:52.768Z,10.02
2024-03-12T23:14:48.201Z,11.95
2024-03-12T23:17:15.974Z,10.27
2024-03-12T23:19:43.842Z,12.65
2024-03-12T23:22:11.597Z,12.02
2024-03-12T23:24:39.432Z,11.80
2024-03-12T23:27:08.931Z,10.88
2024-03-12T23:29:36.549Z,10.82
2024-03-12T23:32:04.819Z,12.02
2024-03-12T23:34:32.693Z,12.38
2024-03-12T23:37:00.560Z,11.40
2024-03-12T23:39:28.435Z,11.52
2024-03-12T23:41:56.920Z,12.07
2024-03-12T23:44:25.946Z,12.27
2024-03-12T23:46:53.771Z,10.55
2024-03-12T23:49:21.808Z,13.25
2024-03-12T23:51:49.439Z,13.13
2024-03-12T23:54:17.357Z,12.73
2024-03-12T23:56:45.201Z,11.55
2024-03-12T23:59:12.832Z,10.27
